Pagrindinis puslapis
METAR-TAF:

METAR-TAF

Oro uostai :

Afjonkarahisaras, Turkija

platuma: 38-45N, ilguma: 030-32E, Aukštis: 1034 m

METAR: trūkstamas

Laikas: 21:12 (18:12 UTC)

Prognozė

Ataskaita buvo paskelbta 4 valandos ir 32 minutes, ne 13:40 UTC
Prognozė galioja nuo 28 metu 15 UTC su 28 metu 24 UTC
Vėjas 8 kt iš Vakarų
Matomumas 10 km arba daugiau
Išsisklaidę debesys ne aukštis 3000 ft

TAF: LTAH 281340Z 2815/2824 26008KT 9999 SCT030

Orai ataskaitas ir orų prognozės (METAR, TAF).

turimą stotys yra geltonos ir raudonos taškus žemėlapyje.

Perkelti pele per norėdami pamatyti stoties vardą.

Tada spustelėkite, norėdami matyti oro stebėjimo ir prognozės.

Norėdami pakeisti žemėlapį: spustelėkite ant žalios mygtukų su juodo kryžiaus žemyn,; žalią mygtuką su brūkšneliu, jei norite nutolinti; arba žalių rodyklių gretimoms žemėlapius.


METAR-TAF: